createdAt,value
2023-05-06T00:04:44.457Z,5.20
2023-05-06T00:09:48.344Z,5.40
2023-05-06T00:14:51.876Z,4.57
2023-05-06T00:19:56.192Z,4.93
2023-05-06T00:24:59.358Z,4.37
2023-05-06T00:30:02.323Z,4.07
2023-05-06T00:35:06.547Z,3.83
2023-05-06T00:40:10.846Z,5.00
2023-05-06T00:45:13.840Z,6.03
2023-05-06T00:50:17.329Z,6.10
2023-05-06T00:55:21.461Z,6.23
2023-05-06T01:00:24.510Z,6.37
2023-05-06T01:05:52.444Z,6.00
2023-05-06T01:11:15.909Z,5.10
2023-05-06T01:16:23.454Z,5.63
2023-05-06T01:21:34.922Z,7.33
2023-05-06T01:26:38.294Z,5.63
2023-05-06T01:31:50.232Z,5.70
2023-05-06T01:37:21.270Z,10.07
2023-05-06T01:42:26.063Z,6.93
2023-05-06T01:47:29.140Z,6.70
2023-05-06T01:52:31.990Z,5.77
2023-05-06T01:57:35.265Z,5.93
2023-05-06T02:02:38.512Z,6.27
2023-05-06T02:07:41.642Z,5.20
2023-05-06T02:12:44.465Z,6.43
2023-05-06T02:17:47.917Z,6.20
2023-05-06T02:22:51.043Z,6.70
2023-05-06T02:27:53.962Z,5.07
2023-05-06T02:32:57.830Z,5.90
2023-05-06T02:38:01.562Z,6.17
2023-05-06T02:43:04.681Z,7.00
2023-05-06T02:48:07.675Z,7.40
2023-05-06T02:53:13.162Z,7.20
2023-05-06T02:58:16.173Z,8.47
2023-05-06T03:03:19.108Z,10.80
2023-05-06T03:08:22.268Z,10.17
2023-05-06T03:13:25.107Z,6.37
2023-05-06T03:18:28.048Z,6.50
2023-05-06T03:23:31.198Z,7.93
2023-05-06T03:28:34.338Z,8.07
2023-05-06T03:33:37.343Z,10.30
2023-05-06T03:38:41.634Z,9.43
2023-05-06T03:43:44.716Z,7.27
2023-05-06T03:48:47.849Z,7.17
2023-05-06T03:53:52.346Z,7.83
2023-05-06T03:58:57.133Z,7.57
2023-05-06T04:04:00.338Z,6.87
2023-05-06T04:09:06.418Z,6.17
2023-05-06T04:14:09.422Z,7.23
2023-05-06T04:19:13.012Z,8.33
2023-05-06T04:24:18.705Z,10.90
2023-05-06T04:29:21.717Z,10.27
2023-05-06T04:34:25.268Z,9.07
2023-05-06T04:39:28.546Z,10.37
2023-05-06T04:44:34.078Z,6.27
2023-05-06T04:49:37.026Z,6.13
2023-05-06T04:54:39.932Z,6.23
2023-05-06T04:59:42.881Z,6.00
2023-05-06T05:04:45.717Z,6.30
2023-05-06T05:09:49.395Z,5.70
2023-05-06T05:14:52.568Z,7.77
2023-05-06T05:19:55.501Z,6.73
2023-05-06T05:24:58.574Z,6.07
2023-05-06T05:30:01.591Z,6.07
2023-05-06T05:35:06.132Z,7.30
2023-05-06T05:40:10.076Z,9.47
2023-05-06T05:45:12.892Z,7.37
2023-05-06T05:50:15.810Z,8.73
2023-05-06T05:55:18.650Z,6.32
2023-05-06T06:00:21.665Z,5.32
2023-05-06T06:05:24.616Z,5.85
2023-05-06T06:10:27.679Z,9.35
2023-05-06T06:15:31.834Z,4.93
2023-05-06T06:20:36.152Z,6.20
2023-05-06T06:25:39.062Z,8.27
2023-05-06T06:30:42.018Z,7.20
2023-05-06T06:35:45.024Z,9.88
2023-05-06T06:40:47.972Z,7.25
2023-05-06T06:45:51.400Z,6.20
2023-05-06T06:50:54.420Z,8.23
2023-05-06T06:55:57.242Z,6.05
2023-05-06T07:01:00.387Z,7.00
2023-05-06T07:06:03.605Z,9.38
2023-05-06T07:11:06.695Z,6.25
2023-05-06T07:16:09.904Z,6.22
2023-05-06T07:21:12.827Z,6.03
2023-05-06T07:26:15.864Z,7.30
2023-05-06T07:31:21.202Z,8.40
2023-05-06T07:36:24.737Z,6.80
2023-05-06T07:41:28.199Z,5.63
2023-05-06T07:46:31.412Z,6.43
2023-05-06T07:51:34.294Z,7.60
2023-05-06T07:56:37.479Z,7.65
2023-05-06T08:01:40.851Z,5.22
2023-05-06T08:06:43.942Z,5.95
2023-05-06T08:11:47.063Z,7.13
2023-05-06T08:16:51.018Z,6.85
2023-05-06T08:21:55.632Z,5.82
2023-05-06T08:26:58.567Z,6.60
2023-05-06T08:32:01.768Z,6.72
2023-05-06T08:37:04.658Z,6.10
2023-05-06T08:42:12.055Z,6.10
2023-05-06T08:47:15.133Z,6.30
2023-05-06T08:52:19.980Z,7.90
2023-05-06T08:57:22.999Z,6.35
2023-05-06T09:02:26.805Z,8.32
2023-05-06T09:07:30.100Z,8.50
2023-05-06T09:12:38.105Z,8.35
2023-05-06T09:17:41.205Z,5.85
2023-05-06T09:22:44.407Z,6.88
2023-05-06T09:27:47.382Z,6.97
2023-05-06T09:32:53.188Z,8.10
2023-05-06T09:37:56.820Z,11.50
2023-05-06T09:43:03.593Z,5.80
2023-05-06T09:48:08.404Z,4.35
2023-05-06T09:53:13.362Z,4.63
2023-05-06T09:58:17.625Z,5.32
2023-05-06T10:03:22.591Z,4.55
2023-05-06T10:08:26.466Z,5.00
2023-05-06T10:13:31.394Z,4.97
2023-05-06T10:18:37.151Z,5.85
2023-05-06T10:24:11.460Z,4.72
2023-05-06T10:29:15.095Z,5.28
2023-05-06T10:34:21.631Z,5.38
2023-05-06T10:39:25.334Z,5.53
2023-05-06T10:44:58.348Z,7.15
2023-05-06T10:50:33.744Z,4.13
2023-05-06T10:55:40.243Z,4.20
2023-05-06T11:00:57.110Z,4.25
2023-05-06T11:06:00.537Z,4.63
2023-05-06T11:11:48.059Z,2.80
2023-05-06T11:16:52.727Z,3.50
2023-05-06T11:21:58.531Z,5.38
2023-05-06T11:27:01.792Z,3.55
2023-05-06T11:32:21.540Z,2.45
2023-05-06T11:37:27.143Z,4.38
2023-05-06T11:42:30.010Z,4.03
2023-05-06T11:47:33.015Z,2.65
2023-05-06T11:52:36.212Z,2.50
2023-05-06T11:57:44.707Z,3.38
2023-05-06T12:02:47.588Z,2.97
2023-05-06T12:07:51.346Z,3.78
2023-05-06T12:12:54.986Z,4.80
2023-05-06T12:17:58.169Z,4.07
2023-05-06T12:23:15.706Z,5.45
2023-05-06T12:28:26.967Z,3.70
2023-05-06T12:33:45.755Z,2.70
2023-05-06T12:38:57.558Z,3.03
2023-05-06T12:44:00.685Z,3.67
2023-05-06T12:49:03.873Z,3.75
2023-05-06T12:54:30.960Z,4.85
2023-05-06T12:59:36.372Z,3.10
2023-05-06T13:04:39.429Z,4.90
2023-05-06T13:09:44.940Z,4.22
2023-05-06T13:14:47.864Z,3.30
2023-05-06T13:19:51.182Z,7.80
2023-05-06T13:24:54.219Z,10.25
2023-05-06T13:29:57.456Z,9.00
2023-05-06T13:35:00.669Z,5.57
2023-05-06T13:40:05.045Z,5.72
2023-05-06T13:45:09.133Z,4.95
2023-05-06T13:50:12.306Z,4.53
2023-05-06T13:55:16.905Z,5.57
2023-05-06T14:00:22.029Z,4.20
2023-05-06T14:05:25.294Z,5.82
2023-05-06T14:10:28.309Z,6.50
2023-05-06T14:15:31.342Z,5.85
2023-05-06T14:20:34.283Z,6.75
2023-05-06T14:25:37.352Z,6.63
2023-05-06T14:30:41.128Z,6.40
2023-05-06T14:35:46.307Z,9.65
2023-05-06T14:40:50.910Z,15.90
2023-05-06T14:45:54.372Z,8.30
2023-05-06T14:50:57.512Z,5.78
2023-05-06T14:56:00.874Z,7.25
2023-05-06T15:01:04.020Z,6.80
2023-05-06T15:06:06.969Z,6.80
2023-05-06T15:11:10.100Z,5.95
2023-05-06T15:16:13.024Z,5.60
2023-05-06T15:21:17.492Z,9.38
2023-05-06T15:26:21.603Z,9.07
2023-05-06T15:31:24.640Z,4.55
2023-05-06T15:36:27.858Z,3.72
2023-05-06T15:41:36.359Z,4.45
2023-05-06T15:46:39.848Z,3.97
2023-05-06T15:51:42.847Z,2.60
2023-05-06T15:56:46.668Z,4.00
2023-05-06T16:06:56.254Z,4.97
2023-05-06T16:11:59.184Z,3.72
2023-05-06T16:17:02.252Z,4.25
2023-05-06T16:22:05.194Z,5.45
2023-05-06T16:27:08.430Z,4.45
2023-05-06T16:32:11.918Z,5.07
2023-05-06T16:37:15.727Z,4.15
2023-05-06T16:42:18.616Z,5.57
2023-05-06T16:47:24.165Z,6.03
2023-05-06T16:52:28.998Z,8.00
2023-05-06T16:57:33.796Z,7.53
2023-05-06T17:02:37.847Z,5.65
2023-05-06T17:07:41.138Z,6.80
2023-05-06T17:12:44.223Z,8.15
2023-05-06T17:17:47.545Z,13.82
2023-05-06T17:22:50.907Z,8.50
2023-05-06T17:27:54.038Z,8.88
2023-05-06T17:32:57.172Z,11.73
2023-05-06T17:38:00.545Z,8.65
2023-05-06T17:43:03.683Z,11.60
2023-05-06T17:48:06.877Z,13.07
2023-05-06T17:53:10.057Z,7.93
2023-05-06T17:58:13.176Z,12.43
2023-05-06T18:03:16.501Z,8.98
2023-05-06T18:08:19.844Z,6.93
2023-05-06T18:13:23.664Z,13.93
2023-05-06T18:18:26.767Z,11.63
2023-05-06T18:23:30.033Z,16.65
2023-05-06T18:28:40.154Z,12.15
2023-05-06T18:38:46.548Z,9.13
2023-05-06T18:43:49.544Z,7.50
2023-05-06T18:48:52.469Z,12.73
2023-05-06T18:53:55.729Z,10.38
2023-05-06T18:58:59.707Z,31.65
2023-05-06T19:04:02.704Z,17.35
2023-05-06T19:09:10.188Z,14.27
2023-05-06T19:14:13.372Z,12.05
2023-05-06T19:19:16.429Z,17.27
2023-05-06T19:24:19.483Z,20.95
2023-05-06T19:29:22.283Z,11.23
2023-05-06T19:34:25.761Z,10.23
2023-05-06T19:39:28.690Z,8.45
2023-05-06T19:44:31.876Z,13.85
2023-05-06T19:49:34.878Z,10.38
2023-05-06T19:54:37.928Z,9.48
2023-05-06T19:59:41.014Z,6.13
2023-05-06T20:04:44.195Z,6.55
2023-05-06T20:09:47.098Z,7.35
2023-05-06T20:14:50.031Z,6.97
2023-05-06T20:19:53.474Z,6.93
2023-05-06T20:25:13.070Z,6.32
2023-05-06T20:30:16.436Z,8.93
2023-05-06T20:35:19.989Z,7.28
2023-05-06T20:40:23.085Z,8.52
2023-05-06T20:45:26.185Z,8.63
2023-05-06T20:50:30.998Z,8.70
2023-05-06T20:55:34.251Z,8.30
2023-05-06T21:00:37.184Z,7.15
2023-05-06T21:05:40.212Z,7.85
2023-05-06T21:10:44.313Z,6.90
2023-05-06T21:15:47.051Z,8.82
2023-05-06T21:20:49.999Z,7.07
2023-05-06T21:25:53.017Z,7.65
2023-05-06T21:30:56.075Z,8.13
2023-05-06T21:35:58.911Z,9.18
2023-05-06T21:41:01.865Z,9.32
2023-05-06T21:46:04.808Z,9.55
2023-05-06T21:51:07.816Z,9.18
2023-05-06T21:56:11.015Z,7.68
2023-05-06T22:01:14.478Z,7.05
2023-05-06T22:06:17.585Z,6.25
2023-05-06T22:11:22.680Z,6.72
2023-05-06T22:16:25.800Z,9.70
2023-05-06T22:21:31.751Z,10.10
2023-05-06T22:26:34.885Z,13.90
2023-05-06T22:31:38.028Z,14.25
2023-05-06T22:36:41.504Z,12.30
2023-05-06T22:41:44.797Z,12.00
2023-05-06T22:46:47.862Z,8.90
2023-05-06T22:51:50.682Z,8.57
2023-05-06T22:56:53.684Z,9.50
2023-05-06T23:01:56.832Z,11.18
2023-05-06T23:06:59.744Z,7.75
2023-05-06T23:12:02.895Z,7.82
2023-05-06T23:17:07.169Z,9.75
2023-05-06T23:22:10.315Z,7.35
2023-05-06T23:27:13.147Z,6.93
2023-05-06T23:32:16.753Z,6.93
2023-05-06T23:37:19.753Z,7.55
2023-05-06T23:42:22.863Z,9.15
2023-05-06T23:47:26.691Z,10.77
2023-05-06T23:52:29.756Z,11.02
2023-05-06T23:57:32.812Z,8.10
